createdAt,value
2018-01-23T00:00:07.901Z,5.10
2018-01-23T00:02:36.149Z,5.20
2018-01-23T00:05:03.659Z,5.10
2018-01-23T00:07:31.130Z,5.20
2018-01-23T00:09:58.600Z,5.20
2018-01-23T00:12:26.200Z,5.10
2018-01-23T00:14:53.673Z,5.10
2018-01-23T00:17:21.145Z,5.00
2018-01-23T00:19:49.409Z,5.00
2018-01-23T00:22:17.680Z,5.00
2018-01-23T00:24:45.152Z,5.00
2018-01-23T00:27:13.424Z,4.90
2018-01-23T00:29:41.669Z,4.90
2018-01-23T00:32:09.151Z,4.90
2018-01-23T00:34:36.649Z,4.90
2018-01-23T00:37:04.127Z,4.80
2018-01-23T00:39:31.600Z,5.00
2018-01-23T00:41:59.101Z,4.90
2018-01-23T00:44:27.340Z,4.50
2018-01-23T00:46:54.820Z,4.50
2018-01-23T00:49:22.318Z,4.60
2018-01-23T00:51:49.790Z,4.80
2018-01-23T00:54:17.261Z,4.70
2018-01-23T00:56:44.764Z,4.60
2018-01-23T00:59:13.008Z,4.80
2018-01-23T01:01:40.492Z,4.80
2018-01-23T01:04:08.000Z,4.80
2018-01-23T01:06:35.482Z,4.70
2018-01-23T01:09:02.958Z,4.70
2018-01-23T01:11:31.216Z,4.50
2018-01-23T01:13:58.689Z,4.50
2018-01-23T01:16:26.169Z,4.60
2018-01-23T01:18:54.440Z,4.30
2018-01-23T01:21:22.019Z,4.30
2018-01-23T01:23:50.248Z,4.30
2018-01-23T01:26:17.770Z,4.20
2018-01-23T01:28:45.256Z,4.20
2018-01-23T01:31:12.720Z,4.40
2018-01-23T01:33:40.216Z,4.60
2018-01-23T01:36:07.691Z,4.60
2018-01-23T01:38:35.933Z,4.60
2018-01-23T01:41:03.427Z,4.50
2018-01-23T01:43:31.668Z,4.40
2018-01-23T01:45:59.132Z,4.30
2018-01-23T01:51:19.426Z,4.30
2018-01-23T01:53:46.920Z,4.30
2018-01-23T01:56:15.164Z,4.30
2018-01-23T01:58:42.638Z,4.20
2018-01-23T02:01:10.132Z,4.30
2018-01-23T02:03:38.384Z,4.40
2018-01-23T02:06:05.852Z,4.30
2018-01-23T02:08:34.123Z,4.20
2018-01-23T02:11:01.600Z,4.20
2018-01-23T02:13:29.841Z,4.10
2018-01-23T02:15:57.327Z,4.00
2018-01-23T02:18:25.578Z,4.00
2018-01-23T02:20:53.822Z,4.00
2018-01-23T02:23:21.317Z,3.90
2018-01-23T02:25:50.301Z,3.70
2018-01-23T02:28:17.784Z,3.70
2018-01-23T02:30:45.284Z,3.70
2018-01-23T02:33:12.760Z,3.70
2018-01-23T02:35:40.242Z,4.00
2018-01-23T02:38:07.738Z,4.00
2018-01-23T02:40:35.972Z,3.90
2018-01-23T02:43:03.453Z,3.80
2018-01-23T02:45:30.952Z,4.00
2018-01-23T02:47:58.428Z,4.00
2018-01-23T02:50:25.895Z,4.00
2018-01-23T02:52:53.389Z,3.90
2018-01-23T02:55:21.634Z,3.90
2018-01-23T02:57:49.112Z,3.90
2018-01-23T03:00:17.421Z,4.00
2018-01-23T03:02:44.881Z,3.90
2018-01-23T03:05:13.122Z,3.90
2018-01-23T03:07:40.634Z,3.80
2018-01-23T03:10:08.104Z,3.90
2018-01-23T03:12:35.576Z,4.00
2018-01-23T03:15:03.073Z,3.70
2018-01-23T03:17:31.316Z,3.60
2018-01-23T03:19:58.791Z,3.50
2018-01-23T03:22:26.477Z,3.70
2018-01-23T03:24:54.716Z,3.60
2018-01-23T03:27:22.183Z,3.50
2018-01-23T03:29:49.688Z,3.60
2018-01-23T03:32:18.087Z,3.50
2018-01-23T03:34:45.570Z,3.50
2018-01-23T03:37:13.064Z,3.50
2018-01-23T03:39:40.539Z,3.60
2018-01-23T03:42:08.779Z,3.70
2018-01-23T03:44:36.277Z,3.60
2018-01-23T03:47:04.523Z,3.60
2018-01-23T03:49:31.998Z,3.50
2018-01-23T03:52:00.255Z,3.80
2018-01-23T03:54:27.729Z,3.70
2018-01-23T03:56:55.992Z,3.50
2018-01-23T03:59:23.478Z,3.50
2018-01-23T04:01:51.726Z,3.60
2018-01-23T04:04:19.299Z,3.50
2018-01-23T04:06:46.802Z,3.50
2018-01-23T04:09:14.276Z,3.60
2018-01-23T04:11:41.748Z,3.70
2018-01-23T04:14:09.241Z,3.60
2018-01-23T04:16:37.485Z,3.60
2018-01-23T04:19:04.972Z,3.50
2018-01-23T04:21:33.245Z,3.80
2018-01-23T04:24:00.716Z,3.70
2018-01-23T04:26:28.960Z,3.50
2018-01-23T04:28:56.449Z,3.50
2018-01-23T04:31:24.693Z,3.40
2018-01-23T04:33:52.160Z,3.40
2018-01-23T04:36:19.677Z,3.30
2018-01-23T04:38:47.157Z,3.20
2018-01-23T04:41:14.624Z,3.30
2018-01-23T04:43:42.117Z,3.40
2018-01-23T04:46:09.590Z,3.50
2018-01-23T04:48:37.828Z,3.40
2018-01-23T04:51:05.324Z,3.30
2018-01-23T04:53:33.556Z,3.70
2018-01-23T04:56:01.035Z,3.60
2018-01-23T04:58:29.288Z,3.90
2018-01-23T05:00:56.756Z,3.80
2018-01-23T05:03:24.231Z,3.90
2018-01-23T05:05:51.716Z,3.60
2018-01-23T05:08:19.960Z,3.90
2018-01-23T05:10:47.456Z,3.90
2018-01-23T05:13:15.712Z,3.80
2018-01-23T05:15:43.953Z,3.90
2018-01-23T05:18:11.421Z,3.90
2018-01-23T05:20:38.904Z,3.70
2018-01-23T05:23:06.385Z,3.70
2018-01-23T05:25:34.636Z,3.60
2018-01-23T05:28:02.128Z,3.60
2018-01-23T05:30:29.613Z,3.80
2018-01-23T05:32:57.097Z,3.70
2018-01-23T05:35:24.588Z,3.60
2018-01-23T05:37:52.828Z,3.70
2018-01-23T05:40:20.303Z,3.60
2018-01-23T05:42:47.800Z,3.50
2018-01-23T05:45:15.272Z,3.70
2018-01-23T05:47:42.741Z,3.90
2018-01-23T05:50:10.235Z,3.90
2018-01-23T05:52:37.714Z,3.90
2018-01-23T05:55:06.079Z,3.70
2018-01-23T05:57:33.585Z,3.70
2018-01-23T06:00:01.052Z,3.70
2018-01-23T06:02:28.524Z,3.70
2018-01-23T06:04:56.020Z,3.70
2018-01-23T06:07:23.491Z,3.70
2018-01-23T06:09:51.736Z,3.40
2018-01-23T06:12:19.257Z,3.30
2018-01-23T06:14:46.745Z,3.40
2018-01-23T06:17:14.223Z,3.60
2018-01-23T06:19:42.488Z,3.40
2018-01-23T06:22:09.964Z,3.40
2018-01-23T06:24:37.432Z,3.30
2018-01-23T06:27:05.694Z,3.20
2018-01-23T06:29:33.935Z,3.10
2018-01-23T06:32:01.408Z,3.00
2018-01-23T06:34:28.903Z,3.00
2018-01-23T06:36:57.144Z,3.10
2018-01-23T06:39:24.637Z,3.10
2018-01-23T06:41:52.905Z,3.10
2018-01-23T06:44:20.384Z,3.10
2018-01-23T06:46:48.628Z,3.00
2018-01-23T06:49:16.126Z,3.00
2018-01-23T06:51:44.374Z,3.00
2018-01-23T06:54:11.852Z,3.00
2018-01-23T06:56:40.120Z,3.30
2018-01-23T06:59:07.598Z,3.20
2018-01-23T07:01:35.839Z,2.90
2018-01-23T07:04:04.847Z,2.90
2018-01-23T07:06:32.324Z,2.90
2018-01-23T07:09:00.564Z,3.20
2018-01-23T07:11:28.057Z,3.20
2018-01-23T07:13:56.291Z,3.00
2018-01-23T07:16:23.781Z,2.90
2018-01-23T07:18:52.041Z,3.20
2018-01-23T07:21:21.028Z,3.20
2018-01-23T07:23:48.495Z,3.20
2018-01-23T07:26:15.992Z,3.20
2018-01-23T07:28:44.252Z,2.90
2018-01-23T07:31:12.489Z,3.10
2018-01-23T07:33:39.992Z,3.00
2018-01-23T07:36:08.333Z,3.60
2018-01-23T07:38:35.800Z,3.50
2018-01-23T07:41:08.991Z,3.50
2018-01-23T07:43:36.465Z,3.30
2018-01-23T07:46:03.935Z,3.40
2018-01-23T07:48:32.221Z,3.20
2018-01-23T07:51:00.473Z,3.60
2018-01-23T07:53:27.940Z,3.50
2018-01-23T07:55:56.192Z,3.30
2018-01-23T07:58:23.678Z,3.30
2018-01-23T08:00:51.940Z,3.40
2018-01-23T08:03:19.459Z,3.40
2018-01-23T08:05:46.952Z,3.80
2018-01-23T08:08:14.449Z,3.60
2018-01-23T08:10:42.706Z,3.50
2018-01-23T08:13:10.200Z,3.50
2018-01-23T08:15:37.676Z,3.60
2018-01-23T08:18:05.178Z,3.80
2018-01-23T08:20:32.658Z,4.00
2018-01-23T08:23:00.908Z,4.10
2018-01-23T08:25:28.420Z,4.00
2018-01-23T08:27:55.909Z,4.20
2018-01-23T08:30:23.400Z,4.10
2018-01-23T08:32:51.675Z,4.20
2018-01-23T08:35:19.233Z,4.20
2018-01-23T08:37:46.710Z,4.40
2018-01-23T08:40:14.965Z,4.40
2018-01-23T08:42:42.607Z,4.30
2018-01-23T08:45:10.191Z,4.50
2018-01-23T08:47:37.708Z,4.40
2018-01-23T08:50:05.192Z,4.40
2018-01-23T08:52:32.664Z,4.70
2018-01-23T08:55:00.156Z,4.70
2018-01-23T08:57:27.639Z,4.70
2018-01-23T08:59:55.126Z,4.70
2018-01-23T09:02:22.688Z,5.00
2018-01-23T09:04:50.184Z,4.80
2018-01-23T09:07:18.432Z,5.10
2018-01-23T09:09:46.020Z,5.00
2018-01-23T09:12:14.276Z,5.60
2018-01-23T09:14:41.743Z,5.50
2018-01-23T09:17:10.012Z,6.10
2018-01-23T09:19:38.294Z,6.20
2018-01-23T09:22:05.770Z,6.10
2018-01-23T09:24:34.062Z,6.50
2018-01-23T09:27:02.292Z,6.60
2018-01-23T09:29:29.760Z,6.50
2018-01-23T09:31:57.260Z,6.50
2018-01-23T09:34:24.755Z,6.40
2018-01-23T09:36:52.227Z,6.50
2018-01-23T09:39:19.732Z,6.60
2018-01-23T09:41:47.212Z,6.70
2018-01-23T09:44:14.693Z,6.50
2018-01-23T09:46:42.190Z,6.50
2018-01-23T09:49:10.429Z,6.60
2018-01-23T09:51:37.914Z,6.50
2018-01-23T09:54:05.407Z,6.80
2018-01-23T09:56:32.896Z,6.90
2018-01-23T09:59:00.402Z,6.60
2018-01-23T10:01:28.657Z,6.80
2018-01-23T10:03:56.138Z,6.80
2018-01-23T10:06:24.377Z,6.80
2018-01-23T10:08:51.863Z,6.80
2018-01-23T10:11:19.344Z,6.70
2018-01-23T10:13:47.583Z,6.70
2018-01-23T10:16:15.074Z,6.70
2018-01-23T10:18:44.939Z,6.90
2018-01-23T10:21:13.229Z,7.00
2018-01-23T10:23:40.750Z,6.90
2018-01-23T10:26:08.312Z,7.10
2018-01-23T10:28:35.785Z,7.20
2018-01-23T10:31:03.280Z,7.30
2018-01-23T10:33:30.750Z,7.30
2018-01-23T10:35:59.704Z,7.40
2018-01-23T10:38:28.018Z,7.40
2018-01-23T10:40:56.273Z,7.50
2018-01-23T10:43:23.782Z,7.50
2018-01-23T10:45:51.281Z,7.50
2018-01-23T10:48:18.755Z,7.50
2018-01-23T10:50:46.271Z,7.50
2018-01-23T10:53:13.764Z,7.60
2018-01-23T10:55:41.243Z,7.80
2018-01-23T10:58:08.727Z,8.30
2018-01-23T11:00:54.675Z,7.90
2018-01-23T11:03:22.139Z,7.80
2018-01-23T11:05:49.644Z,7.90
2018-01-23T11:08:17.145Z,7.80
2018-01-23T11:10:44.620Z,8.00
2018-01-23T11:13:12.115Z,8.00
2018-01-23T11:15:40.384Z,8.70
2018-01-23T11:18:08.621Z,8.70
2018-01-23T11:20:36.100Z,8.60
2018-01-23T11:23:03.605Z,8.70
2018-01-23T11:25:31.092Z,8.50
2018-01-23T11:27:58.563Z,9.50
2018-01-23T11:30:26.055Z,9.20
2018-01-23T11:32:54.257Z,9.60
2018-01-23T11:35:21.745Z,9.10
2018-01-23T11:37:49.282Z,8.80
2018-01-23T11:40:16.776Z,9.60
2018-01-23T11:42:44.295Z,9.00
2018-01-23T11:45:11.814Z,8.80
2018-01-23T11:47:39.296Z,8.80
2018-01-23T11:50:07.560Z,10.70
2018-01-23T11:52:35.864Z,10.40
2018-01-23T11:55:03.457Z,10.30
2018-01-23T11:57:30.960Z,10.40
2018-01-23T11:59:59.244Z,10.80
2018-01-23T12:02:27.676Z,10.20
2018-01-23T12:04:55.196Z,10.10
2018-01-23T12:07:22.759Z,9.60
2018-01-23T12:09:50.330Z,9.30
2018-01-23T12:12:17.808Z,9.20
2018-01-23T12:14:45.363Z,9.30
2018-01-23T12:17:12.834Z,9.20
2018-01-23T12:19:40.323Z,9.30
2018-01-23T12:22:08.620Z,9.80
2018-01-23T12:24:36.865Z,9.70
2018-01-23T12:27:04.352Z,9.60
2018-01-23T12:29:32.617Z,10.50
2018-01-23T12:32:00.178Z,10.40
2018-01-23T12:34:28.454Z,9.80
2018-01-23T12:36:55.957Z,9.80
2018-01-23T12:39:23.447Z,10.10
2018-01-23T12:41:50.952Z,10.50
2018-01-23T12:44:19.215Z,10.00
2018-01-23T12:46:47.454Z,9.90
2018-01-23T12:49:14.944Z,9.80
2018-01-23T12:51:43.201Z,10.00
2018-01-23T12:54:10.680Z,9.90
2018-01-23T12:56:38.160Z,10.20
2018-01-23T12:59:06.427Z,10.10
2018-01-23T13:01:34.663Z,10.30
2018-01-23T13:04:02.189Z,10.20
2018-01-23T13:06:29.697Z,10.60
2018-01-23T13:08:57.196Z,10.90
2018-01-23T13:11:24.742Z,10.70
2018-01-23T13:13:52.275Z,10.30
2018-01-23T13:16:19.749Z,10.20
2018-01-23T13:18:47.240Z,10.80
2018-01-23T13:21:14.753Z,10.60
2018-01-23T13:23:42.235Z,10.80
2018-01-23T13:26:10.551Z,11.30
2018-01-23T13:28:38.155Z,11.20
2018-01-23T13:31:05.644Z,11.00
2018-01-23T13:33:33.148Z,11.20
2018-01-23T13:36:00.670Z,11.10
2018-01-23T13:38:28.152Z,10.60
2018-01-23T13:40:55.644Z,10.70
2018-01-23T13:43:23.188Z,10.50
2018-01-23T13:45:50.736Z,10.70
2018-01-23T13:48:18.236Z,10.40
2018-01-23T13:50:45.776Z,10.40
2018-01-23T13:53:13.268Z,10.40
2018-01-23T13:55:41.516Z,11.40
2018-01-23T13:58:09.023Z,11.40
2018-01-23T14:00:36.513Z,11.50
2018-01-23T14:03:04.024Z,11.10
2018-01-23T14:05:32.304Z,11.20
2018-01-23T14:08:00.558Z,10.90
2018-01-23T14:10:28.046Z,10.90
2018-01-23T14:12:56.347Z,10.80
2018-01-23T14:15:23.864Z,10.70
2018-01-23T14:17:51.352Z,11.00
2018-01-23T14:20:18.872Z,10.50
2018-01-23T14:22:46.358Z,10.60
2018-01-23T14:25:14.635Z,10.70
2018-01-23T14:27:42.896Z,10.90
2018-01-23T14:30:10.619Z,10.80
2018-01-23T14:32:38.121Z,11.00
2018-01-23T14:35:05.654Z,11.10
2018-01-23T14:37:33.138Z,10.60
2018-01-23T14:40:00.624Z,11.10
2018-01-23T14:42:28.125Z,11.10
2018-01-23T14:44:55.612Z,10.50
2018-01-23T14:47:23.088Z,10.70
2018-01-23T14:49:51.351Z,11.10
2018-01-23T14:52:19.616Z,10.70
2018-01-23T14:54:47.104Z,10.60
2018-01-23T14:57:15.364Z,10.40
2018-01-23T14:59:42.851Z,10.30
2018-01-23T15:02:10.326Z,10.80
2018-01-23T15:04:37.859Z,10.60
2018-01-23T15:07:06.176Z,11.10
2018-01-23T15:09:33.714Z,11.10
2018-01-23T15:12:01.207Z,10.80
2018-01-23T15:14:28.680Z,10.50
2018-01-23T15:16:56.201Z,10.40
2018-01-23T15:19:23.699Z,11.20
2018-01-23T15:21:51.202Z,10.70
2018-01-23T15:24:19.491Z,10.60
2018-01-23T15:26:46.994Z,10.50
2018-01-23T15:29:14.480Z,10.50
2018-01-23T15:31:42.721Z,10.30
2018-01-23T15:34:10.279Z,10.30
2018-01-23T15:36:37.759Z,10.20
2018-01-23T15:39:05.256Z,10.10
2018-01-23T15:41:32.786Z,10.40
2018-01-23T15:44:00.264Z,10.40
2018-01-23T15:46:28.522Z,10.40
2018-01-23T15:48:56.813Z,10.20
2018-01-23T15:51:25.051Z,10.10
2018-01-23T15:53:52.608Z,10.10
2018-01-23T15:56:20.086Z,10.00
2018-01-23T15:58:47.594Z,10.20
2018-01-23T16:01:15.091Z,10.20
2018-01-23T16:03:42.595Z,10.50
2018-01-23T16:06:10.836Z,10.20
2018-01-23T16:08:38.311Z,10.10
2018-01-23T16:11:05.850Z,10.00
2018-01-23T16:13:33.327Z,9.90
2018-01-23T16:16:00.826Z,9.80
2018-01-23T16:18:28.372Z,9.90
2018-01-23T16:20:56.628Z,9.70
2018-01-23T16:23:24.945Z,10.20
2018-01-23T16:25:52.457Z,10.20
2018-01-23T16:28:19.948Z,10.00
2018-01-23T16:30:47.451Z,9.80
2018-01-23T16:33:14.960Z,9.60
2018-01-23T16:35:42.452Z,9.60
2018-01-23T16:38:09.960Z,9.60
2018-01-23T16:40:38.245Z,9.60
2018-01-23T16:43:06.500Z,9.60
2018-01-23T16:45:33.985Z,9.50
2018-01-23T16:48:02.268Z,9.50
2018-01-23T16:50:30.513Z,9.60
2018-01-23T16:52:58.013Z,9.50
2018-01-23T16:55:25.516Z,9.50
2018-01-23T16:57:52.999Z,9.50
2018-01-23T17:00:20.493Z,9.50
2018-01-23T17:02:47.980Z,9.60
2018-01-23T17:05:15.452Z,9.60
2018-01-23T17:07:42.956Z,9.70
2018-01-23T17:10:11.266Z,9.70
2018-01-23T17:12:38.739Z,9.60
2018-01-23T17:15:06.214Z,9.60
2018-01-23T17:17:33.720Z,9.60
2018-01-23T17:20:01.239Z,9.60
2018-01-23T17:22:28.753Z,9.70
2018-01-23T17:24:56.275Z,9.60
2018-01-23T17:27:24.596Z,9.50
2018-01-23T17:29:52.108Z,9.50
2018-01-23T17:32:21.180Z,9.50
2018-01-23T17:34:48.659Z,9.50
2018-01-23T17:37:16.184Z,9.50
2018-01-23T17:39:43.681Z,9.50
2018-01-23T17:42:11.173Z,9.50
2018-01-23T17:44:38.698Z,9.50
2018-01-23T17:47:06.272Z,9.50
2018-01-23T17:49:34.518Z,9.50
2018-01-23T17:52:02.041Z,9.50
2018-01-23T17:54:29.536Z,9.60
2018-01-23T17:56:57.012Z,9.60
2018-01-23T17:59:24.495Z,9.60
2018-01-23T18:01:52.777Z,9.50
2018-01-23T18:04:21.020Z,9.40
2018-01-23T18:06:49.290Z,9.40
2018-01-23T18:09:16.817Z,9.30
2018-01-23T18:11:44.311Z,9.40
2018-01-23T18:14:11.856Z,9.40
2018-01-23T18:16:39.360Z,9.40
2018-01-23T18:19:07.667Z,9.40
2018-01-23T18:21:35.248Z,9.40
2018-01-23T18:24:02.773Z,9.40
2018-01-23T18:26:30.248Z,9.40
2018-01-23T18:28:57.725Z,9.40
2018-01-23T18:31:25.221Z,9.40
2018-01-23T18:33:52.736Z,9.30
2018-01-23T18:36:20.259Z,9.40
2018-01-23T18:38:47.728Z,9.30
2018-01-23T18:41:15.200Z,9.30
2018-01-23T18:43:42.681Z,9.30
2018-01-23T18:46:10.232Z,9.20
2018-01-23T18:48:37.744Z,9.10
2018-01-23T18:51:05.997Z,9.10
2018-01-23T18:53:33.486Z,9.10
2018-01-23T18:56:01.014Z,8.90
2018-01-23T18:58:28.531Z,9.10
2018-01-23T19:00:56.251Z,9.10
2018-01-23T19:03:23.858Z,9.70
2018-01-23T19:05:51.579Z,9.90
2018-01-23T19:08:19.129Z,9.70
2018-01-23T19:10:46.654Z,9.60
2018-01-23T19:13:14.121Z,9.70
2018-01-23T19:15:41.688Z,9.70
2018-01-23T19:18:09.157Z,9.80
2018-01-23T19:20:36.791Z,9.90
2018-01-23T19:23:04.328Z,10.10
2018-01-23T19:25:31.833Z,10.60
2018-01-23T19:27:59.408Z,10.40
2018-01-23T19:30:27.860Z,11.70
2018-01-23T19:32:55.332Z,10.80
2018-01-23T19:35:22.899Z,10.60
2018-01-23T19:37:50.404Z,10.60
2018-01-23T19:40:18.659Z,10.70
2018-01-23T19:42:46.234Z,10.70
2018-01-23T19:45:15.739Z,10.50
2018-01-23T19:47:43.983Z,10.60
2018-01-23T19:50:11.502Z,10.60
2018-01-23T19:52:38.998Z,10.50
2018-01-23T19:55:06.499Z,10.10
2018-01-23T19:57:34.842Z,10.40
2018-01-23T20:00:02.436Z,10.30
2018-01-23T20:02:30.712Z,10.40
2018-01-23T20:04:58.956Z,10.20
2018-01-23T20:07:26.447Z,10.20
2018-01-23T20:09:55.674Z,10.70
2018-01-23T20:12:23.335Z,10.70
2018-01-23T20:14:50.846Z,11.00
2018-01-23T20:17:18.364Z,11.30
2018-01-23T20:19:45.889Z,11.90
2018-01-23T20:22:14.151Z,12.20
2018-01-23T20:24:41.640Z,12.10
2018-01-23T20:27:09.115Z,11.90
2018-01-23T20:29:36.777Z,11.30
2018-01-23T20:32:04.323Z,10.90
2018-01-23T20:34:31.893Z,10.40
2018-01-23T20:36:59.394Z,10.00
2018-01-23T20:39:27.196Z,9.70
2018-01-23T20:41:55.768Z,9.40
2018-01-23T20:44:24.072Z,9.20
2018-01-23T20:46:51.653Z,9.20
2018-01-23T20:49:19.188Z,9.50
2018-01-23T20:51:47.548Z,9.60
2018-01-23T20:54:15.810Z,9.50
2018-01-23T20:56:44.076Z,9.50
2018-01-23T20:59:11.608Z,9.50
2018-01-23T21:01:39.156Z,9.40
2018-01-23T21:04:06.664Z,9.70
2018-01-23T21:06:34.175Z,9.70
2018-01-23T21:09:01.793Z,9.60
2018-01-23T21:11:29.297Z,9.60
2018-01-23T21:13:57.536Z,9.50
2018-01-23T21:16:25.044Z,9.50
2018-01-23T21:18:52.532Z,9.70
2018-01-23T21:21:20.039Z,9.70
2018-01-23T21:23:47.512Z,9.70
2018-01-23T21:26:15.009Z,9.60
2018-01-23T21:28:42.578Z,9.60
2018-01-23T21:31:10.140Z,9.50
2018-01-23T21:33:37.692Z,9.60
2018-01-23T21:36:05.991Z,10.00
2018-01-23T21:38:33.473Z,10.00
2018-01-23T21:41:01.719Z,9.60
2018-01-23T21:43:29.221Z,9.60
2018-01-23T21:45:56.739Z,9.50
2018-01-23T21:48:24.262Z,9.40
2018-01-23T21:50:51.783Z,9.40
2018-01-23T21:53:20.024Z,9.10
2018-01-23T21:55:47.516Z,9.00
2018-01-23T21:58:15.772Z,8.90
2018-01-23T22:00:43.254Z,8.80
2018-01-23T22:03:11.506Z,8.50
2018-01-23T22:05:39.000Z,8.40
2018-01-23T22:08:06.479Z,8.40
2018-01-23T22:10:33.960Z,8.40
2018-01-23T22:13:01.452Z,8.20
2018-01-23T22:15:28.936Z,8.20
2018-01-23T22:17:56.407Z,8.20
2018-01-23T22:20:23.900Z,8.20
2018-01-23T22:22:51.390Z,8.10
2018-01-23T22:25:19.629Z,7.80
2018-01-23T22:27:47.117Z,7.70
2018-01-23T22:30:14.596Z,7.70
2018-01-23T22:32:42.840Z,7.90
2018-01-23T22:35:10.349Z,7.90
2018-01-23T22:37:37.836Z,7.80
2018-01-23T22:40:05.319Z,7.80
2018-01-23T22:42:35.695Z,7.90
2018-01-23T22:45:03.176Z,7.80
2018-01-23T22:47:30.650Z,7.80
2018-01-23T22:49:58.154Z,7.90
2018-01-23T22:52:26.457Z,8.00
2018-01-23T22:54:53.933Z,7.90
2018-01-23T22:57:21.432Z,8.00
2018-01-23T22:59:48.920Z,7.90
2018-01-23T23:02:16.428Z,8.00
2018-01-23T23:04:43.932Z,8.00
2018-01-23T23:07:12.172Z,7.90
2018-01-23T23:09:39.659Z,7.90
2018-01-23T23:12:07.909Z,7.60
2018-01-23T23:14:35.385Z,7.60
2018-01-23T23:17:03.626Z,7.50
2018-01-23T23:19:31.120Z,7.50
2018-01-23T23:21:59.370Z,7.70
2018-01-23T23:24:26.855Z,7.70
2018-01-23T23:26:55.107Z,7.80
2018-01-23T23:29:22.585Z,7.70
2018-01-23T23:31:50.063Z,7.90
2018-01-23T23:34:18.324Z,7.80
2018-01-23T23:36:45.815Z,7.70
2018-01-23T23:39:13.305Z,7.70
2018-01-23T23:41:40.798Z,7.60
2018-01-23T23:44:08.272Z,7.60
2018-01-23T23:46:35.760Z,7.70
2018-01-23T23:49:03.243Z,7.60
2018-01-23T23:51:30.962Z,7.60
2018-01-23T23:53:59.217Z,7.60
2018-01-23T23:56:26.713Z,7.50
2018-01-23T23:58:54.193Z,7.70
